createdAt,value
2019-01-10T00:01:42.358Z,1.77
2019-01-10T00:06:57.746Z,1.73
2019-01-10T00:12:13.323Z,1.60
2019-01-10T00:17:29.142Z,1.47
2019-01-10T00:22:45.506Z,1.67
2019-01-10T00:28:01.393Z,1.70
2019-01-10T00:33:16.605Z,1.60
2019-01-10T00:38:32.509Z,1.93
2019-01-10T00:43:47.838Z,1.50
2019-01-10T00:49:03.210Z,1.50
2019-01-10T00:54:19.333Z,1.40
2019-01-10T00:59:34.681Z,1.80
2019-01-10T01:04:50.226Z,1.60
2019-01-10T01:10:05.397Z,1.23
2019-01-10T01:15:21.389Z,1.30
2019-01-10T01:20:36.644Z,1.70
2019-01-10T01:25:52.049Z,1.40
2019-01-10T01:31:07.689Z,1.47
2019-01-10T01:36:23.714Z,1.53
2019-01-10T01:41:38.997Z,1.33
2019-01-10T01:46:54.660Z,1.90
2019-01-10T01:52:10.254Z,1.67
2019-01-10T01:57:25.477Z,1.70
2019-01-10T02:02:41.740Z,1.87
2019-01-10T02:07:58.045Z,1.87
2019-01-10T02:13:16.876Z,1.30
2019-01-10T02:18:31.617Z,1.10
2019-01-10T02:23:47.297Z,1.30
2019-01-10T02:29:03.017Z,1.47
2019-01-10T02:34:18.415Z,1.53
2019-01-10T02:39:35.808Z,1.80
2019-01-10T02:44:52.294Z,1.23
2019-01-10T02:50:09.924Z,1.20
2019-01-10T02:55:25.741Z,1.40
2019-01-10T03:00:41.422Z,1.13
2019-01-10T03:05:57.489Z,1.40
2019-01-10T03:11:13.547Z,1.63
2019-01-10T03:16:29.189Z,1.27
2019-01-10T03:21:45.434Z,1.20
2019-01-10T03:27:01.448Z,1.43
2019-01-10T03:32:17.894Z,1.33
2019-01-10T03:37:33.886Z,1.10
2019-01-10T03:42:49.788Z,1.40
2019-01-10T03:48:06.325Z,1.60
2019-01-10T03:53:22.107Z,1.40
2019-01-10T03:58:37.561Z,1.10
2019-01-10T04:03:53.078Z,1.40
2019-01-10T04:09:08.901Z,1.00
2019-01-10T04:14:25.101Z,1.07
2019-01-10T04:19:41.466Z,1.00
2019-01-10T04:24:57.181Z,1.20
2019-01-10T04:30:13.510Z,1.07
2019-01-10T04:35:29.481Z,1.03
2019-01-10T04:40:45.062Z,1.23
2019-01-10T04:46:00.613Z,1.13
2019-01-10T04:51:16.793Z,1.20
2019-01-10T04:56:32.788Z,1.10
2019-01-10T05:01:48.402Z,1.00
2019-01-10T05:07:02.197Z,1.37
2019-01-10T05:12:25.020Z,1.07
2019-01-10T05:17:48.129Z,1.57
2019-01-10T05:23:11.181Z,1.20
2019-01-10T05:28:33.936Z,1.23
2019-01-10T05:33:49.270Z,1.47
2019-01-10T05:39:04.877Z,1.00
2019-01-10T05:44:26.516Z,1.30
2019-01-10T05:49:37.851Z,1.47
2019-01-10T05:54:53.374Z,1.20
2019-01-10T06:00:09.639Z,1.47
2019-01-10T06:05:25.157Z,1.83
2019-01-10T06:10:40.829Z,1.20
2019-01-10T06:15:56.761Z,1.77
2019-01-10T06:21:12.121Z,1.10
2019-01-10T06:26:27.598Z,1.50
2019-01-10T06:31:43.801Z,1.30
2019-01-10T06:37:00.192Z,1.33
2019-01-10T06:42:15.852Z,1.50
2019-01-10T06:47:31.565Z,1.60
2019-01-10T06:52:47.218Z,1.63
2019-01-10T06:58:03.349Z,1.60
2019-01-10T07:03:18.797Z,1.40
2019-01-10T07:08:34.122Z,1.67
2019-01-10T07:13:49.606Z,1.63
2019-01-10T07:19:07.927Z,1.30
2019-01-10T07:24:23.789Z,1.57
2019-01-10T07:29:39.497Z,1.47
2019-01-10T07:34:56.721Z,2.17
2019-01-10T07:40:12.132Z,2.07
2019-01-10T07:45:28.377Z,1.63
2019-01-10T07:50:44.086Z,1.57
2019-01-10T07:55:59.314Z,2.30
2019-01-10T08:01:15.045Z,1.53
2019-01-10T08:06:30.460Z,1.57
2019-01-10T08:11:46.322Z,1.97
2019-01-10T08:17:02.004Z,3.77
2019-01-10T08:22:17.226Z,2.40
2019-01-10T08:27:32.682Z,4.27
2019-01-10T08:32:48.601Z,3.37
2019-01-10T08:38:04.629Z,2.17
2019-01-10T08:43:20.388Z,1.83
2019-01-10T08:48:36.301Z,2.43
2019-01-10T08:53:54.113Z,1.70
2019-01-10T08:59:13.305Z,2.50
2019-01-10T09:04:28.705Z,2.90
2019-01-10T09:09:44.410Z,2.67
2019-01-10T09:15:00.097Z,1.80
2019-01-10T09:20:16.353Z,1.90
2019-01-10T09:25:32.453Z,2.17
2019-01-10T09:30:49.102Z,2.03
2019-01-10T09:36:04.375Z,2.27
2019-01-10T09:41:20.065Z,2.33
2019-01-10T09:46:35.710Z,1.67
2019-01-10T09:51:51.449Z,3.07
2019-01-10T09:57:07.058Z,2.13
2019-01-10T10:02:22.822Z,2.50
2019-01-10T10:07:38.434Z,2.60
2019-01-10T10:12:55.447Z,2.43
2019-01-10T10:18:13.770Z,2.50
2019-01-10T10:23:29.289Z,2.60
2019-01-10T10:28:45.204Z,2.27
2019-01-10T10:34:01.152Z,2.80
2019-01-10T10:39:16.540Z,2.20
2019-01-10T10:44:32.209Z,2.57
2019-01-10T10:49:48.521Z,2.10
2019-01-10T10:55:03.985Z,2.23
2019-01-10T11:00:19.406Z,1.93
2019-01-10T11:05:35.348Z,2.13
2019-01-10T11:10:50.866Z,2.13
2019-01-10T11:16:10.709Z,2.27
2019-01-10T11:21:24.478Z,1.90
2019-01-10T11:26:43.090Z,2.77
2019-01-10T11:31:58.823Z,2.60
2019-01-10T11:37:14.782Z,1.70
2019-01-10T11:42:30.755Z,1.80
2019-01-10T11:47:46.000Z,2.10
2019-01-10T11:53:01.945Z,2.17
2019-01-10T11:58:17.625Z,1.63
2019-01-10T12:03:33.225Z,1.80
2019-01-10T12:08:49.305Z,2.00
2019-01-10T12:14:05.390Z,2.37
2019-01-10T12:19:20.710Z,2.10
2019-01-10T12:24:36.405Z,2.07
2019-01-10T12:29:52.790Z,2.27
2019-01-10T12:35:08.305Z,2.40
2019-01-10T12:40:23.530Z,2.93
2019-01-10T12:45:38.753Z,2.70
2019-01-10T12:50:54.318Z,2.40
2019-01-10T12:56:09.566Z,3.10
2019-01-10T13:01:25.224Z,3.03
2019-01-10T13:06:40.714Z,3.07
2019-01-10T13:11:56.353Z,3.00
2019-01-10T13:17:12.172Z,2.43
2019-01-10T13:22:28.023Z,2.97
2019-01-10T13:27:43.551Z,1.93
2019-01-10T13:32:59.631Z,2.33
2019-01-10T13:38:15.069Z,2.23
2019-01-10T13:43:31.173Z,2.70
2019-01-10T13:48:51.539Z,2.73
2019-01-10T13:54:04.353Z,2.50
2019-01-10T13:59:20.708Z,2.70
2019-01-10T14:04:39.914Z,2.13
2019-01-10T14:09:55.941Z,2.20
2019-01-10T14:15:15.984Z,2.13
2019-01-10T14:20:36.385Z,2.20
2019-01-10T14:25:57.176Z,4.10
2019-01-10T14:31:15.178Z,14.50
2019-01-10T14:36:46.875Z,3.47
2019-01-10T14:42:03.513Z,2.50
2019-01-10T14:47:28.787Z,2.57
2019-01-10T14:52:32.675Z,2.37
2019-01-10T14:58:07.579Z,2.00
2019-01-10T15:03:20.581Z,2.70
2019-01-10T15:08:43.892Z,2.87
2019-01-10T15:14:26.661Z,3.20
2019-01-10T15:19:49.736Z,3.77
2019-01-10T15:25:50.671Z,3.40
2019-01-10T15:36:12.617Z,3.77
2019-01-10T15:41:36.366Z,4.30
2019-01-10T15:47:19.852Z,4.17
2019-01-10T15:52:43.585Z,5.10
2019-01-10T15:58:06.723Z,4.87
2019-01-10T16:03:29.477Z,4.60
2019-01-10T16:08:52.399Z,4.70
2019-01-10T16:14:15.181Z,4.47
2019-01-10T16:19:37.976Z,6.23
2019-01-10T16:25:01.117Z,6.17
2019-01-10T16:30:44.940Z,6.20
2019-01-10T16:36:00.874Z,5.27
2019-01-10T16:41:18.225Z,4.23
2019-01-10T16:46:35.198Z,5.37
2019-01-10T16:51:52.397Z,5.63
2019-01-10T16:57:12.201Z,5.30
2019-01-10T17:02:27.853Z,5.07
2019-01-10T17:07:43.943Z,7.30
2019-01-10T17:12:59.305Z,6.30
2019-01-10T17:18:14.934Z,5.20
2019-01-10T17:23:30.998Z,6.13
2019-01-10T17:28:47.559Z,5.73
2019-01-10T17:34:06.469Z,5.97
2019-01-10T17:39:25.975Z,5.67
2019-01-10T17:44:46.190Z,5.33
2019-01-10T17:50:29.290Z,5.13
2019-01-10T17:55:37.094Z,5.80
2019-01-10T18:00:56.927Z,4.70
2019-01-10T18:06:13.010Z,4.93
2019-01-10T18:11:34.567Z,5.23
2019-01-10T18:16:54.034Z,5.57
2019-01-10T18:22:15.750Z,5.57
2019-01-10T18:27:31.797Z,6.10
2019-01-10T18:32:47.637Z,6.00
2019-01-10T18:38:03.092Z,5.67
2019-01-10T18:43:20.602Z,6.00
2019-01-10T18:48:39.701Z,5.47
2019-01-10T18:53:53.903Z,5.87
2019-01-10T18:59:09.649Z,6.20
2019-01-10T19:04:25.298Z,6.53
2019-01-10T19:09:40.526Z,6.80
2019-01-10T19:14:56.365Z,6.27
2019-01-10T19:20:12.530Z,6.23
2019-01-10T19:25:27.829Z,7.83
2019-01-10T19:30:46.665Z,5.90
2019-01-10T19:36:02.797Z,5.10
2019-01-10T19:41:21.418Z,8.00
2019-01-10T19:51:58.119Z,5.60
2019-01-10T19:57:13.717Z,5.40
2019-01-10T20:02:29.004Z,5.63
2019-01-10T20:07:44.658Z,5.40
2019-01-10T20:13:00.216Z,5.37
2019-01-10T20:18:16.526Z,5.77
2019-01-10T20:23:32.378Z,6.90
2019-01-10T20:28:48.246Z,6.33
2019-01-10T20:34:03.465Z,6.50
2019-01-10T20:39:19.442Z,6.90
2019-01-10T20:44:35.181Z,7.07
2019-01-10T20:49:51.253Z,7.03
2019-01-10T20:55:07.119Z,7.37
2019-01-10T21:00:23.921Z,8.10
2019-01-10T21:05:39.114Z,6.43
2019-01-10T21:10:55.297Z,5.90
2019-01-10T21:16:11.137Z,6.93
2019-01-10T21:21:27.044Z,7.00
2019-01-10T21:26:42.861Z,6.77
2019-01-10T21:31:58.615Z,6.03
2019-01-10T21:37:14.497Z,6.33
2019-01-10T21:42:30.545Z,5.87
2019-01-10T21:47:46.816Z,7.17
2019-01-10T21:53:03.992Z,7.77
2019-01-10T21:58:20.161Z,5.67
2019-01-10T22:03:35.477Z,6.80
2019-01-10T22:08:50.965Z,6.00
2019-01-10T22:14:06.467Z,6.73
2019-01-10T22:19:22.077Z,7.00
2019-01-10T22:24:37.386Z,7.03
2019-01-10T22:29:52.649Z,6.60
2019-01-10T22:35:08.338Z,8.13
2019-01-10T22:40:23.721Z,6.17
2019-01-10T22:45:39.429Z,6.10
2019-01-10T22:50:54.724Z,6.70
2019-01-10T22:56:11.085Z,6.33
2019-01-10T23:01:31.410Z,7.10
2019-01-10T23:06:48.036Z,7.40
2019-01-10T23:12:04.905Z,7.10
2019-01-10T23:17:20.629Z,7.70
2019-01-10T23:22:36.645Z,6.90
2019-01-10T23:27:53.105Z,7.10
2019-01-10T23:33:10.210Z,7.50
2019-01-10T23:38:36.741Z,6.90
2019-01-10T23:43:53.693Z,7.23
2019-01-10T23:49:15.814Z,7.27
2019-01-10T23:54:42.274Z,8.30
